createdAt,value
2023-02-11T00:03:27.560Z,21.67
2023-02-11T00:08:30.161Z,22.87
2023-02-11T00:13:34.620Z,22.10
2023-02-11T00:18:37.241Z,22.83
2023-02-11T00:23:40.000Z,22.17
2023-02-11T00:28:44.302Z,21.07
2023-02-11T00:33:47.357Z,21.93
2023-02-11T00:38:51.072Z,20.00
2023-02-11T00:43:55.058Z,20.37
2023-02-11T00:48:57.929Z,21.23
2023-02-11T00:54:00.633Z,21.17
2023-02-11T00:59:04.602Z,20.20
2023-02-11T01:04:07.172Z,19.33
2023-02-11T01:09:09.763Z,20.10
2023-02-11T01:14:13.786Z,19.33
2023-02-11T01:19:16.348Z,19.23
2023-02-11T01:24:21.726Z,19.83
2023-02-11T01:29:25.654Z,18.27
2023-02-11T01:34:30.398Z,18.23
2023-02-11T01:39:33.977Z,17.33
2023-02-11T01:44:39.992Z,15.80
2023-02-11T01:49:48.739Z,17.43
2023-02-11T01:55:14.326Z,16.43
2023-02-11T02:05:55.454Z,17.30
2023-02-11T02:11:00.722Z,15.10
2023-02-11T02:16:08.600Z,16.77
2023-02-11T02:21:38.732Z,18.43
2023-02-11T02:27:00.343Z,16.37
2023-02-11T02:32:34.468Z,16.90
2023-02-11T02:37:43.022Z,15.40
2023-02-11T02:42:46.201Z,15.03
2023-02-11T02:47:50.371Z,14.43
2023-02-11T02:53:01.057Z,15.10
2023-02-11T02:58:25.395Z,14.70
2023-02-11T03:03:36.869Z,14.63
2023-02-11T03:08:44.701Z,13.90
2023-02-11T03:13:50.414Z,12.83
2023-02-11T03:18:58.614Z,13.50
2023-02-11T03:24:06.736Z,13.83
2023-02-11T03:29:15.443Z,13.67
2023-02-11T03:34:28.460Z,13.23
2023-02-11T03:39:37.457Z,13.87
2023-02-11T03:44:45.205Z,13.43
2023-02-11T03:49:52.214Z,13.50
2023-02-11T03:54:58.945Z,13.40
2023-02-11T04:00:02.106Z,12.77
2023-02-11T04:05:17.050Z,14.87
2023-02-11T04:10:19.821Z,12.77
2023-02-11T04:15:22.675Z,11.50
2023-02-11T04:20:26.575Z,12.00
2023-02-11T04:25:29.122Z,12.70
2023-02-11T04:30:31.775Z,12.83
2023-02-11T04:35:35.814Z,14.47
2023-02-11T04:40:38.605Z,13.23
2023-02-11T04:45:41.343Z,12.40
2023-02-11T04:50:45.228Z,13.57
2023-02-11T04:55:50.561Z,14.87
2023-02-11T05:00:53.458Z,13.93
2023-02-11T05:05:57.339Z,15.20
2023-02-11T05:11:01.998Z,15.33
2023-02-11T05:16:04.993Z,15.20
2023-02-11T05:21:10.448Z,16.20
2023-02-11T05:26:13.912Z,17.77
2023-02-11T05:31:16.769Z,17.83
2023-02-11T05:36:20.862Z,17.70
2023-02-11T05:41:23.476Z,17.57
2023-02-11T05:46:26.163Z,19.40
2023-02-11T05:51:30.158Z,20.37
2023-02-11T05:56:33.156Z,20.80
2023-02-11T06:01:35.799Z,21.53
2023-02-11T06:06:39.974Z,24.10
2023-02-11T06:11:42.693Z,22.27
2023-02-11T06:16:45.385Z,20.53
2023-02-11T06:21:49.420Z,20.70
2023-02-11T06:26:52.124Z,20.83
2023-02-11T06:31:54.819Z,20.63
2023-02-11T06:36:58.788Z,20.83
2023-02-11T06:42:01.355Z,22.13
2023-02-11T06:47:04.019Z,20.77
2023-02-11T06:52:07.913Z,19.10
2023-02-11T06:57:10.457Z,18.80
2023-02-11T07:02:13.096Z,20.20
2023-02-11T07:07:17.033Z,19.17
2023-02-11T07:12:19.578Z,21.17
2023-02-11T07:17:22.117Z,18.53
2023-02-11T07:22:26.445Z,19.30
2023-02-11T07:27:29.017Z,19.20
2023-02-11T07:32:31.561Z,20.87
2023-02-11T07:37:36.593Z,20.00
2023-02-11T07:42:40.340Z,25.80
2023-02-11T07:47:43.366Z,20.17
2023-02-11T07:52:47.391Z,20.40
2023-02-11T07:57:50.721Z,20.90
2023-02-11T08:02:53.275Z,20.57
2023-02-11T08:07:57.179Z,19.23
2023-02-11T08:12:59.740Z,19.63
2023-02-11T08:18:02.272Z,20.97
2023-02-11T08:23:08.097Z,20.50
2023-02-11T08:28:10.697Z,20.50
2023-02-11T08:33:13.250Z,22.10
2023-02-11T08:38:17.529Z,18.87
2023-02-11T08:43:20.172Z,22.40
2023-02-11T08:48:23.327Z,24.80
2023-02-11T08:53:28.010Z,20.93
2023-02-11T08:58:30.849Z,22.90
2023-02-11T09:03:33.419Z,22.57
2023-02-11T09:08:38.333Z,24.30
2023-02-11T09:13:42.665Z,25.87
2023-02-11T09:18:45.751Z,24.20
2023-02-11T09:23:49.802Z,24.37
2023-02-11T09:28:52.798Z,25.13
2023-02-11T09:33:57.402Z,25.93
2023-02-11T09:39:02.957Z,25.33
2023-02-11T09:44:08.948Z,24.60
2023-02-11T09:49:20.880Z,25.77
2023-02-11T09:54:31.100Z,23.47
2023-02-11T09:59:34.722Z,26.93
2023-02-11T10:04:58.320Z,30.07
2023-02-11T10:10:15.151Z,27.50
2023-02-11T10:15:28.398Z,28.73
2023-02-11T10:20:35.821Z,28.63
2023-02-11T10:25:45.431Z,31.27
2023-02-11T10:30:56.813Z,29.80
2023-02-11T10:35:59.816Z,29.30
2023-02-11T10:41:03.784Z,29.10
2023-02-11T10:46:06.899Z,31.03
2023-02-11T10:51:17.595Z,30.27
2023-02-11T10:56:28.910Z,30.13
2023-02-11T11:01:42.811Z,30.57
2023-02-11T11:06:45.456Z,30.23
2023-02-11T11:11:54.126Z,31.83
2023-02-11T11:16:56.729Z,29.33
2023-02-11T11:22:00.223Z,31.60
2023-02-11T11:27:06.042Z,31.03
2023-02-11T11:32:18.282Z,32.03
2023-02-11T11:37:25.500Z,32.37
2023-02-11T11:42:32.086Z,34.40
2023-02-11T11:47:42.206Z,33.10
2023-02-11T11:52:51.056Z,29.40
2023-02-11T11:57:55.016Z,33.17
2023-02-11T12:03:18.445Z,30.40
2023-02-11T12:08:31.758Z,31.47
2023-02-11T12:13:53.678Z,31.13
2023-02-11T12:19:28.006Z,31.63
2023-02-11T12:24:42.132Z,31.30
2023-02-11T12:29:59.890Z,32.27
2023-02-11T12:35:22.105Z,32.63
2023-02-11T12:40:32.045Z,31.40
2023-02-11T12:46:01.847Z,31.57
2023-02-11T12:51:15.279Z,33.97
2023-02-11T12:56:24.157Z,30.90
2023-02-11T13:01:33.073Z,32.17
2023-02-11T13:06:40.974Z,30.57
2023-02-11T13:11:51.845Z,32.70
2023-02-11T13:16:57.895Z,30.97
2023-02-11T13:22:08.296Z,30.17
2023-02-11T13:27:30.655Z,32.57
2023-02-11T13:39:23.294Z,32.23
2023-02-11T13:44:28.952Z,31.77
2023-02-11T13:49:40.386Z,30.87
2023-02-11T13:54:50.457Z,37.60
2023-02-11T13:59:54.046Z,30.13
2023-02-11T14:05:31.670Z,31.33
2023-02-11T14:10:53.374Z,28.03
2023-02-11T14:16:08.042Z,35.43
2023-02-11T14:21:14.048Z,32.70
2023-02-11T14:26:32.294Z,29.60
2023-02-11T14:31:42.462Z,26.83
2023-02-11T14:36:58.042Z,29.57
2023-02-11T14:42:04.571Z,29.47
2023-02-11T14:47:09.862Z,30.63
2023-02-11T14:52:23.896Z,27.73
2023-02-11T14:57:29.620Z,29.43
2023-02-11T15:02:36.232Z,30.30
2023-02-11T15:07:44.000Z,27.97
2023-02-11T15:12:51.374Z,28.53
2023-02-11T15:17:57.185Z,29.07
2023-02-11T15:23:03.635Z,29.20
2023-02-11T15:28:16.771Z,43.57
2023-02-11T15:33:25.457Z,26.97
2023-02-11T15:38:29.934Z,28.17
2023-02-11T15:43:45.206Z,28.63
2023-02-11T15:48:51.054Z,25.33
2023-02-11T15:53:58.575Z,25.47
2023-02-11T15:59:13.942Z,26.90
2023-02-11T16:04:20.298Z,28.27
2023-02-11T16:09:43.310Z,32.50
2023-02-11T16:14:48.053Z,31.27
2023-02-11T16:19:54.854Z,31.27
2023-02-11T16:25:00.199Z,31.00
2023-02-11T16:30:05.649Z,32.57
2023-02-11T16:35:12.833Z,33.80
2023-02-11T16:40:16.606Z,32.20
2023-02-11T16:45:21.453Z,32.03
2023-02-11T16:50:26.647Z,35.20
2023-02-11T16:55:29.951Z,38.60
2023-02-11T17:00:34.895Z,34.90
2023-02-11T17:05:54.406Z,34.33
2023-02-11T17:10:58.252Z,33.23
2023-02-11T17:16:03.368Z,31.60
2023-02-11T17:21:07.774Z,35.70
2023-02-11T17:26:10.916Z,36.37
2023-02-11T17:31:16.966Z,34.37
2023-02-11T17:36:20.542Z,36.40
2023-02-11T17:41:23.674Z,34.93
2023-02-11T17:46:29.566Z,35.93
2023-02-11T17:51:34.427Z,34.97
2023-02-11T17:56:38.299Z,38.10
2023-02-11T18:01:44.513Z,39.70
2023-02-11T18:06:48.097Z,37.40
2023-02-11T18:11:52.681Z,38.13
2023-02-11T18:16:57.261Z,36.70
2023-02-11T18:22:01.140Z,38.77
2023-02-11T18:27:04.729Z,53.23
2023-02-11T18:32:09.399Z,38.93
2023-02-11T18:37:14.041Z,39.00
2023-02-11T18:42:17.212Z,40.60
2023-02-11T18:47:22.206Z,43.90
2023-02-11T18:52:25.328Z,42.00
2023-02-11T18:57:28.437Z,40.40
2023-02-11T19:02:33.033Z,42.47
2023-02-11T19:07:36.493Z,44.13
2023-02-11T19:12:40.083Z,42.17
2023-02-11T19:17:44.198Z,41.73
2023-02-11T19:22:46.839Z,41.10
2023-02-11T19:27:49.377Z,40.90
2023-02-11T19:32:56.900Z,39.30
2023-02-11T19:37:59.452Z,44.30
2023-02-11T19:43:01.987Z,42.37
2023-02-11T19:48:06.154Z,42.07
2023-02-11T19:53:08.789Z,39.60
2023-02-11T19:58:11.354Z,41.63
2023-02-11T20:03:15.301Z,43.40
2023-02-11T20:08:18.492Z,45.00
2023-02-11T20:13:21.465Z,62.10
2023-02-11T20:18:25.368Z,43.00
2023-02-11T20:23:29.211Z,41.27
2023-02-11T20:28:31.951Z,43.80
2023-02-11T20:33:35.845Z,43.83
2023-02-11T20:38:39.038Z,41.33
2023-02-11T20:43:41.875Z,128.07
2023-02-11T20:48:45.856Z,49.20
2023-02-11T20:53:50.987Z,39.40
2023-02-11T20:58:54.288Z,41.90
2023-02-11T21:03:59.388Z,68.43
2023-02-11T21:09:02.027Z,67.70
2023-02-11T21:14:05.406Z,42.90
2023-02-11T21:19:09.322Z,41.90
2023-02-11T21:24:12.809Z,40.27
2023-02-11T21:29:15.387Z,40.87
2023-02-11T21:34:20.022Z,40.77
2023-02-11T21:39:22.583Z,40.00
2023-02-11T21:44:25.228Z,40.63
2023-02-11T21:49:29.860Z,41.87
2023-02-11T21:54:33.154Z,40.37
2023-02-11T21:59:35.701Z,43.57
2023-02-11T22:04:39.610Z,39.80
2023-02-11T22:09:42.329Z,41.97
2023-02-11T22:14:46.214Z,40.70
2023-02-11T22:19:50.413Z,40.13
2023-02-11T22:24:53.931Z,40.53
2023-02-11T22:29:56.880Z,39.27
2023-02-11T22:35:00.897Z,46.83
2023-02-11T22:40:03.435Z,41.43
2023-02-11T22:45:07.308Z,37.93
2023-02-11T22:50:11.971Z,39.37
2023-02-11T22:55:14.849Z,39.23
2023-02-11T23:00:18.864Z,39.57
2023-02-11T23:05:23.020Z,39.90
2023-02-11T23:10:25.607Z,39.20
2023-02-11T23:15:28.173Z,39.90
2023-02-11T23:20:32.064Z,38.20
2023-02-11T23:25:35.075Z,37.40
2023-02-11T23:30:37.707Z,38.00
2023-02-11T23:35:41.663Z,35.93
2023-02-11T23:40:44.621Z,38.90
2023-02-11T23:45:48.741Z,39.87
2023-02-11T23:50:52.728Z,37.20
2023-02-11T23:55:55.642Z,38.53
